AirNav   Air Wisconsin Up To $57,000 Bonus
 
 574 users online  

16D Perham Municipal Airport
Perham, Minnesota, USA

GOING TO PERHAM?


FAA INFORMATION EFFECTIVE 25 MARCH 2021

Location

FAA Identifier: 16D
Lat/Long: 46-36-39.5000N 095-36-22.0000W
46-36.658333N 095-36.366667W
46.6109722,-95.6061111
(estimated)
Elevation: 1376 ft. / 419.4 m (surveyed)
Variation: 02E (2015)
From city: 2 miles NW of PERHAM, MN
Time zone: UTC -5 (UTC -6 during Standard Time)
Zip code: 56573

Airport Operations

Airport use: Open to the public
Activation date: 07/1949
Control tower: no
ARTCC: MINNEAPOLIS CENTER
FSS: PRINCETON FLIGHT SERVICE STATION
NOTAMs facility: PNM (NOTAM-D service available)
Attendance: UNATNDD
Wind indicator: lighted
Segmented circle: no
Lights: MIRL RY 13/31 PRESET TO LOW INTENSITY; TO INCREASE INTENSITY AND ACTVT PAPI RY 13 & RY 31 AND REIL RY 13 & RY 31 - CTAF.
Beacon: white-green (lighted land airport)
Operates sunset to sunrise.

Airport Communications

CTAF: 122.9
WX AWOS-3 at DTL (17 nm NW): 119.075 (218-847-8626)
WX AWOS-3 at ADC (19 nm SE): 128.325 (218-631-7774)
  • APCH/DEP SVC PRVDD BY MINNEAPOLIS ARTCC ON FREQS 126.1/269.2 (ALEXANDRIA RCAG).

Nearby radio navigation aids

VOR radial/distance  VOR name  Freq  Var
DTLr136/17.3DETROIT LAKES VOR/DME111.2002E
FFMr045/29.8FERGUS FALLS VOR/DME110.4005E

Airport Services

Fuel available: 100LL
FUEL AVAIL 24 HRS W CREDIT CARD.
Parking: hangars and tiedowns
Airframe service: NONE
Powerplant service: NONE
Bottled oxygen: NONE
Bulk oxygen: NONE

Runway Information

Runway 13/31

Dimensions: 4102 x 75 ft. / 1250 x 23 m
Surface: asphalt, in good condition
Runway edge lights: medium intensity
RUNWAY 13  RUNWAY 31
Latitude: 46-36.877373N46-36.440755N
Longitude: 095-36.739872W095-35.993127W
Elevation: 1376.0 ft.1371.3 ft.
Traffic pattern: leftleft
Runway heading: 128 magnetic, 130 true308 magnetic, 310 true
Markings: nonprecision, in good conditionnonprecision, in good condition
Visual slope indicator: 4-light PAPI on left (3.00 degrees glide path)4-light PAPI on left (3.00 degrees glide path)
Runway end identifier lights: yesyes
Touchdown point: yes, no lightsyes, no lights

Airport Ownership and Management from official FAA records

Ownership: Publicly-owned
Owner: CITY OF PERHAM
125 2ND ST NE,, P.O. BOX 130
PERHAM, MN 56573
Phone 218-346-4455
Manager: JOHNATHAN SMITH
125 2ND ST NE,, P.O. BOX 130
PERHAM, MN 56573
Phone (218) 346-4455

Airport Operational Statistics

Aircraft based on the field: 16
Single engine airplanes: 12
Multi engine airplanes: 1
Helicopters: 2
Ultralights: 1
    
Aircraft operations: avg 20/day *
69% local general aviation
31% transient general aviation
* for 12-month period ending 30 April 2017

Additional Remarks

ULTRALIGHTS ON & INVOF ARPT.
HEL OPS, NW CORNER OF ARPT.
GCO AVBL ON FREQ 121.725.
FOR CD IF UNA VIA GCO CTC MINNEAPOLIS ARTCC AT 651-463-5588.

Instrument Procedures

NOTE: All procedures below are presented as PDF files. If you need a reader for these files, you should download the free Adobe Reader.

NOT FOR NAVIGATION. Please procure official charts for flight.
FAA instrument procedures published for use from 25 March 2021 at 0901Z to 22 April 2021 at 0900z.

 
IAPs - Instrument Approach Procedures
RNAV (GPS) RWY 13   download (217KB)
RNAV (GPS) RWY 31   download (207KB)
NOTE: Special Take-Off Minimums/Departure Procedures apply   download (158KB)

Other nearby airports with instrument procedures:

KDTL - Detroit Lakes Airport-Wething Field (17 nm NW)
KADC - Wadena Municipal Airport (19 nm SE)
KPKD - Park Rapids Municipal Airport-Konshok Field (28 nm NE)
KFFM - Fergus Falls Municipal Airport-Einar Mickelson Field (30 nm SW)
04Y - Hawley Municipal Airport (35 nm NW)
 
Loc | Ops | Rwys | IFR | FBO | Links
Com | Nav | Svcs | Stats | Notes
Area around 16D (Perham Municipal Airport)
 
Road maps at: MapQuest Bing Google
 
Aerial photo
WARNING: Photo may not be current or correct
Aerial photo of 16D (Perham Municipal Airport)
Photo taken 23-Sep-2005
taken from a Cessna Caravan

Do you have a better or more recent aerial photo of Perham Municipal Airport that you would like to share? If so, please send us your photo.

 
Sectional chart

 
Airport distance calculator
Flying to Perham Municipal Airport? Find the distance to fly.

From to 16D

Sunrise and sunset
Times for 10-Apr-2021
 Local
(UTC-5)
 Zulu
(UTC)
Morning civil twilight06:1411:14
Sunrise06:4511:45
Sunset20:0201:02
Evening civil twilight20:3301:33

Current date and time
Zulu (UTC)  11-Apr-2021 04:58:17
Local (UTC-5)  10-Apr-2021 23:58:17
 
METAR
KDTL 
16nm NW 
110455Z AUTO 00000KT 10SM CLR 03/01 A2969 RMK AO2
KADC 
19nm SE 
110437Z AUTO 00000KT 10SM 02/00 A2969 RMK AO2
KPKD 
28nm NE 
110453Z AUTO 00000KT 10SM CLR 00/M01 A2968 RMK AO2 SLP066 T00001011
KFFM 
31nm SW 
110455Z AUTO 11005KT 10SM CLR 06/02 A2965 RMK AO2
TAF
KAXN 
45nm S 
102204Z 1022/1118 36012KT P6SM SCT020 TEMPO 1023/1024 BKN025 FM110300 03007KT P6SM FEW070
NOTAMs
Click for the latest NOTAMs
NOTAMs are issued by the DoD/FAA and will open in a separate window not controlled by AirNav.

 

 
 

FBO, Fuel Providers, and Aircraft Ground Support

  
 Business Name 
 
 Contact 
 
 Services / Description 
 
Fuel Prices
 
Comments
  
Perham Municipal Airport 218-346-4455
no information available

If you are affiliated with Perham Municipal Airport and would like to show here your services, contact info, web link, logo, and more, click here
100LL
SS $3.27 
 Updated 02-Apr-2021
 
   write
SS=Self service
Update Fuel Prices
 

Would you like to see your business listed on this page?

 If your business provides an interesting product or service to pilots, flight crews, aircraft, or users of the Perham Municipal Airport, you should consider listing it here.  To start the listing process, click on the button below
 
Add a business
 

Other Pages about Perham Municipal Airport

Update a link
 
Copyright © AirNav, LLC. All rights reserved. Privacy Policy  Contact